createdAt,value
2022-11-06T00:00:32.295Z,65.93
2022-11-06T00:03:01.989Z,70.95
2022-11-06T00:06:02.322Z,64.82
2022-11-06T00:08:33.309Z,61.47
2022-11-06T00:11:01.650Z,62.20
2022-11-06T00:13:30.156Z,64.13
2022-11-06T00:16:01.747Z,64.90
2022-11-06T00:18:29.626Z,66.20
2022-11-06T00:20:57.255Z,59.45
2022-11-06T00:23:25.498Z,65.68
2022-11-06T00:25:56.592Z,62.22
2022-11-06T00:28:24.695Z,59.65
2022-11-06T00:31:00.504Z,63.50
2022-11-06T00:33:28.455Z,66.53
2022-11-06T00:35:56.075Z,66.80
2022-11-06T00:38:24.111Z,66.78
2022-11-06T00:40:51.855Z,68.82
2022-11-06T00:43:19.834Z,60.08
2022-11-06T00:45:47.509Z,63.35
2022-11-06T00:48:15.873Z,64.38
2022-11-06T00:50:43.655Z,73.90
2022-11-06T00:53:11.604Z,63.65
2022-11-06T00:55:39.349Z,61.50
2022-11-06T00:58:07.246Z,68.40
2022-11-06T01:00:35.010Z,70.20
2022-11-06T01:03:03.256Z,68.00
2022-11-06T01:05:30.993Z,68.80
2022-11-06T01:07:58.949Z,65.95
2022-11-06T01:10:26.611Z,68.22
2022-11-06T01:12:54.487Z,76.00
2022-11-06T01:15:22.175Z,71.43
2022-11-06T01:17:50.053Z,74.55
2022-11-06T01:20:17.800Z,75.28
2022-11-06T01:22:45.674Z,70.53
2022-11-06T01:25:13.299Z,64.22
2022-11-06T01:27:41.299Z,72.22
2022-11-06T01:30:10.675Z,69.35
2022-11-06T01:32:38.563Z,69.95
2022-11-06T01:35:06.539Z,65.47
2022-11-06T01:37:34.495Z,73.47
2022-11-06T01:40:02.117Z,66.50
2022-11-06T01:42:30.169Z,58.35
2022-11-06T01:45:21.628Z,64.05
2022-11-06T01:47:49.896Z,65.65
2022-11-06T01:50:19.451Z,65.90
2022-11-06T01:52:50.649Z,66.15
2022-11-06T01:55:27.284Z,58.53
2022-11-06T01:57:57.220Z,69.97
2022-11-06T02:00:24.950Z,68.78
2022-11-06T02:02:53.217Z,69.55
2022-11-06T02:05:21.330Z,61.45
2022-11-06T02:07:49.627Z,63.63
2022-11-06T02:10:17.689Z,61.28
2022-11-06T02:12:56.227Z,62.00
2022-11-06T02:15:26.636Z,64.43
2022-11-06T02:18:05.408Z,60.45
2022-11-06T02:20:39.546Z,65.10
2022-11-06T02:23:18.855Z,73.15
2022-11-06T02:26:11.382Z,62.53
2022-11-06T02:29:03.926Z,58.88
2022-11-06T02:31:35.866Z,66.25
2022-11-06T02:34:09.948Z,67.72
2022-11-06T02:36:45.436Z,64.15
2022-11-06T02:39:18.918Z,77.18
2022-11-06T02:41:49.857Z,64.43
2022-11-06T02:44:24.889Z,66.15
2022-11-06T02:47:00.134Z,63.30
2022-11-06T02:49:37.231Z,66.15
2022-11-06T02:52:32.048Z,73.45
2022-11-06T02:55:08.155Z,63.55
2022-11-06T02:57:38.830Z,67.43
2022-11-06T03:00:12.541Z,62.78
2022-11-06T03:02:46.663Z,60.65
2022-11-06T03:05:24.597Z,66.05
2022-11-06T03:08:26.502Z,58.45
2022-11-06T03:11:19.687Z,51.10
2022-11-06T03:14:02.026Z,59.55
2022-11-06T03:16:48.495Z,60.72
2022-11-06T03:19:25.538Z,59.08
2022-11-06T03:22:15.019Z,53.70
2022-11-06T03:25:13.209Z,53.95
2022-11-06T03:28:03.878Z,52.67
2022-11-06T03:30:36.508Z,51.92
2022-11-06T03:33:17.624Z,50.53
2022-11-06T03:36:10.762Z,53.42
2022-11-06T03:38:44.311Z,47.50
2022-11-06T03:41:41.893Z,50.00
2022-11-06T03:44:13.961Z,51.45
2022-11-06T03:46:47.988Z,56.67
2022-11-06T03:49:22.812Z,45.42
2022-11-06T03:52:03.001Z,47.13
2022-11-06T03:54:35.910Z,45.33
2022-11-06T03:57:18.792Z,42.55
2022-11-06T03:59:56.065Z,45.95
2022-11-06T04:02:27.926Z,41.55
2022-11-06T04:05:05.060Z,39.80
2022-11-06T04:07:38.610Z,44.38
2022-11-06T04:10:29.604Z,46.08
2022-11-06T04:13:18.395Z,36.42
2022-11-06T04:15:53.027Z,51.15
2022-11-06T04:18:21.121Z,37.53
2022-11-06T04:21:25.098Z,35.95
2022-11-06T04:24:32.943Z,42.40
2022-11-06T04:27:22.020Z,36.75
2022-11-06T04:29:49.713Z,35.65
2022-11-06T04:32:26.457Z,41.70
2022-11-06T04:35:32.417Z,35.65
2022-11-06T04:38:36.061Z,46.63
2022-11-06T04:41:34.627Z,41.40
2022-11-06T04:44:15.149Z,43.22
2022-11-06T04:46:59.348Z,33.22
2022-11-06T04:49:31.114Z,35.33
2022-11-06T04:52:02.544Z,36.28
2022-11-06T04:54:31.497Z,40.90
2022-11-06T04:57:00.595Z,36.63
2022-11-06T04:59:30.303Z,44.40
2022-11-06T05:01:58.009Z,41.80
2022-11-06T05:04:26.132Z,42.95
2022-11-06T05:06:53.845Z,43.95
2022-11-06T05:09:21.898Z,43.65
2022-11-06T05:11:49.617Z,39.92
2022-11-06T05:14:17.603Z,59.95
2022-11-06T05:16:45.228Z,62.28
2022-11-06T05:19:13.207Z,37.65
2022-11-06T05:21:59.634Z,37.55
2022-11-06T05:24:27.704Z,35.28
2022-11-06T05:26:59.357Z,42.35
2022-11-06T05:29:28.321Z,42.63
2022-11-06T05:31:56.029Z,44.63
2022-11-06T05:34:24.065Z,35.33
2022-11-06T05:36:51.739Z,34.33
2022-11-06T05:39:19.711Z,44.17
2022-11-06T05:41:47.441Z,34.22
2022-11-06T05:44:15.425Z,36.47
2022-11-06T05:46:48.671Z,30.20
2022-11-06T05:49:18.621Z,35.25
2022-11-06T05:51:46.827Z,38.78
2022-11-06T05:54:15.641Z,53.83
2022-11-06T05:56:43.297Z,44.75
2022-11-06T05:59:11.469Z,42.83
2022-11-06T06:01:39.446Z,46.97
2022-11-06T06:04:07.587Z,46.30
2022-11-06T06:06:36.241Z,36.78
2022-11-06T06:09:04.519Z,42.85
2022-11-06T06:11:32.280Z,43.15
2022-11-06T06:14:01.851Z,33.53
2022-11-06T06:16:29.570Z,45.05
2022-11-06T06:18:57.505Z,36.28
2022-11-06T06:21:25.332Z,37.72
2022-11-06T06:23:53.269Z,35.65
2022-11-06T06:26:21.006Z,36.95
2022-11-06T06:28:49.821Z,33.67
2022-11-06T06:31:17.503Z,39.53
2022-11-06T06:33:45.656Z,80.38
2022-11-06T06:36:13.440Z,106.22
2022-11-06T06:38:41.420Z,118.05
2022-11-06T06:41:09.646Z,155.32
2022-11-06T06:43:37.654Z,199.13
2022-11-06T06:46:07.399Z,103.20
2022-11-06T06:48:35.652Z,126.95
2022-11-06T06:51:04.905Z,154.98
2022-11-06T06:53:33.681Z,99.20
2022-11-06T06:56:02.140Z,182.07
2022-11-06T06:58:30.950Z,77.40
2022-11-06T07:01:04.251Z,92.57
2022-11-06T07:03:32.402Z,158.23
2022-11-06T07:06:00.542Z,151.00
2022-11-06T07:08:29.362Z,105.50
2022-11-06T07:11:01.642Z,119.60
2022-11-06T07:13:35.500Z,95.35
2022-11-06T07:16:10.435Z,102.43
2022-11-06T07:18:39.548Z,106.18
2022-11-06T07:21:12.596Z,164.70
2022-11-06T07:23:41.284Z,111.47
2022-11-06T07:26:09.016Z,85.35
2022-11-06T07:28:37.020Z,160.60
2022-11-06T07:31:07.333Z,79.88
2022-11-06T07:33:35.980Z,158.07
2022-11-06T07:36:11.254Z,113.00
2022-11-06T07:38:41.039Z,128.65
2022-11-06T07:41:11.704Z,131.15
2022-11-06T07:43:40.935Z,101.82
2022-11-06T07:46:10.518Z,160.48
2022-11-06T07:48:39.655Z,115.18
2022-11-06T07:51:10.077Z,64.60
2022-11-06T07:53:38.783Z,130.90
2022-11-06T07:56:06.944Z,56.33
2022-11-06T07:58:35.241Z,97.90
2022-11-06T08:01:03.584Z,128.07
2022-11-06T08:03:32.020Z,80.28
2022-11-06T08:06:02.775Z,92.85
2022-11-06T08:08:31.516Z,102.75
2022-11-06T08:11:07.525Z,48.35
2022-11-06T08:13:35.563Z,58.40
2022-11-06T08:16:11.925Z,38.75
2022-11-06T08:18:40.882Z,65.18
2022-11-06T08:21:09.050Z,41.30
2022-11-06T08:23:37.534Z,37.70
2022-11-06T08:26:07.000Z,33.78
2022-11-06T08:28:35.445Z,35.90
2022-11-06T08:31:07.536Z,48.53
2022-11-06T08:33:36.803Z,39.50
2022-11-06T08:36:06.557Z,56.92
2022-11-06T08:38:35.285Z,66.38
2022-11-06T08:41:07.322Z,43.65
2022-11-06T08:43:35.835Z,35.58
2022-11-06T08:46:07.853Z,36.53
2022-11-06T08:48:35.903Z,47.47
2022-11-06T08:51:05.742Z,46.38
2022-11-06T08:53:33.956Z,42.22
2022-11-06T08:56:04.279Z,37.78
2022-11-06T08:58:32.376Z,47.63
2022-11-06T09:01:00.210Z,41.72
2022-11-06T09:03:28.207Z,39.28
2022-11-06T09:05:55.840Z,44.90
2022-11-06T09:08:24.326Z,54.47
2022-11-06T09:10:57.263Z,45.95
2022-11-06T09:13:26.624Z,39.72
2022-11-06T09:15:54.323Z,33.05
2022-11-06T09:18:22.309Z,42.47
2022-11-06T09:20:49.916Z,25.70
2022-11-06T09:23:17.858Z,32.78
2022-11-06T09:25:45.480Z,34.55
2022-11-06T09:28:13.607Z,40.08
2022-11-06T09:30:41.318Z,29.90
2022-11-06T09:33:13.317Z,32.03
2022-11-06T09:35:42.096Z,31.38
2022-11-06T09:38:15.560Z,29.90
2022-11-06T09:40:58.482Z,30.10
2022-11-06T09:46:28.841Z,22.77
2022-11-06T09:49:06.120Z,25.35
2022-11-06T09:51:54.563Z,23.38
2022-11-06T09:54:26.078Z,26.30
2022-11-06T09:57:04.922Z,22.08
2022-11-06T09:59:37.153Z,26.20
2022-11-06T10:02:28.848Z,22.15
2022-11-06T10:05:33.166Z,27.23
2022-11-06T10:08:25.324Z,22.90
2022-11-06T10:11:04.474Z,23.90
2022-11-06T10:13:46.184Z,22.20
2022-11-06T10:16:14.080Z,21.92
2022-11-06T10:19:05.644Z,23.92
2022-11-06T10:21:55.195Z,24.95
2022-11-06T10:24:53.961Z,25.63
2022-11-06T10:28:07.917Z,27.00
2022-11-06T10:31:03.524Z,31.50
2022-11-06T10:33:51.741Z,25.67
2022-11-06T10:36:25.991Z,24.25
2022-11-06T10:38:56.364Z,26.17
2022-11-06T10:41:29.761Z,27.45
2022-11-06T10:44:14.037Z,27.20
2022-11-06T10:46:49.981Z,28.27
2022-11-06T10:49:45.754Z,28.25
2022-11-06T10:52:24.295Z,30.73
2022-11-06T10:55:27.775Z,26.50
2022-11-06T10:58:01.274Z,25.70
2022-11-06T11:00:29.585Z,28.00
2022-11-06T11:03:03.103Z,31.23
2022-11-06T11:05:40.558Z,27.60
2022-11-06T11:08:30.910Z,27.33
2022-11-06T11:11:14.900Z,26.90
2022-11-06T11:14:09.337Z,27.15
2022-11-06T11:16:40.935Z,26.98
2022-11-06T11:19:35.917Z,31.00
2022-11-06T11:22:17.103Z,27.08
2022-11-06T11:25:04.261Z,29.13
2022-11-06T11:27:44.702Z,25.38
2022-11-06T11:30:23.476Z,24.13
2022-11-06T11:32:52.056Z,24.45
2022-11-06T11:35:28.635Z,22.85
2022-11-06T11:38:12.274Z,26.80
2022-11-06T11:40:40.963Z,21.40
2022-11-06T11:43:25.482Z,22.27
2022-11-06T11:46:12.232Z,26.75
2022-11-06T11:48:53.387Z,22.50
2022-11-06T11:51:39.570Z,28.42
2022-11-06T11:54:13.091Z,28.33
2022-11-06T11:57:07.660Z,27.92
2022-11-06T12:00:00.417Z,29.88
2022-11-06T12:02:50.774Z,25.42
2022-11-06T12:05:45.270Z,22.10
2022-11-06T12:08:22.525Z,23.92
2022-11-06T12:10:51.142Z,22.33
2022-11-06T12:13:22.002Z,20.00
2022-11-06T12:15:58.419Z,21.95
2022-11-06T12:18:48.291Z,22.65
2022-11-06T12:21:32.467Z,21.92
2022-11-06T12:24:18.894Z,21.45
2022-11-06T12:26:58.116Z,22.92
2022-11-06T12:29:37.133Z,26.30
2022-11-06T12:32:07.943Z,23.35
2022-11-06T12:34:58.645Z,22.42
2022-11-06T12:37:51.770Z,22.13
2022-11-06T12:40:25.463Z,22.85
2022-11-06T12:45:49.332Z,23.33
2022-11-06T12:48:36.506Z,24.02
2022-11-06T12:51:13.183Z,21.70
2022-11-06T12:54:11.965Z,25.45
2022-11-06T12:57:21.098Z,26.77
2022-11-06T13:00:02.575Z,26.40
2022-11-06T13:03:01.234Z,28.20
2022-11-06T13:05:44.558Z,25.48
2022-11-06T13:08:12.624Z,25.30
2022-11-06T13:11:06.356Z,22.27
2022-11-06T13:13:56.329Z,22.15
2022-11-06T13:16:32.493Z,28.42
2022-11-06T13:19:21.643Z,26.35
2022-11-06T13:21:52.446Z,24.85
2022-11-06T13:24:41.730Z,25.88
2022-11-06T13:27:31.404Z,22.15
2022-11-06T13:30:05.196Z,22.60
2022-11-06T13:32:36.148Z,22.02
2022-11-06T13:35:04.809Z,22.27
2022-11-06T13:37:38.199Z,19.05
2022-11-06T13:40:19.865Z,27.10
2022-11-06T13:42:59.688Z,19.95
2022-11-06T13:45:28.438Z,18.58
2022-11-06T13:48:37.319Z,21.85
2022-11-06T13:51:27.182Z,21.75
2022-11-06T13:54:10.805Z,17.33
2022-11-06T13:56:53.112Z,25.90
2022-11-06T13:59:36.227Z,22.98
2022-11-06T14:02:40.418Z,21.77
2022-11-06T14:05:42.078Z,26.17
2022-11-06T14:08:35.121Z,29.55
2022-11-06T14:11:18.258Z,28.33
2022-11-06T14:14:08.274Z,29.48
2022-11-06T14:16:41.307Z,25.85
2022-11-06T14:19:35.862Z,32.17
2022-11-06T14:22:09.470Z,21.13
2022-11-06T14:24:42.207Z,25.75
2022-11-06T14:27:13.454Z,34.95
2022-11-06T14:29:54.644Z,26.52
2022-11-06T14:32:31.590Z,22.33
2022-11-06T14:35:28.225Z,27.15
2022-11-06T14:38:34.817Z,26.77
2022-11-06T14:41:22.711Z,28.30
2022-11-06T14:43:54.335Z,26.20
2022-11-06T14:46:23.864Z,31.27
2022-11-06T14:48:55.344Z,23.17
2022-11-06T14:51:29.379Z,23.38
2022-11-06T14:54:06.732Z,29.08
2022-11-06T14:56:39.413Z,32.20
2022-11-06T14:59:16.843Z,38.65
2022-11-06T15:01:57.783Z,35.20
2022-11-06T15:04:28.669Z,40.17
2022-11-06T15:07:44.676Z,40.10
2022-11-06T15:10:44.182Z,38.33
2022-11-06T15:13:18.810Z,32.33
2022-11-06T15:15:50.210Z,46.95
2022-11-06T15:18:25.407Z,33.53
2022-11-06T15:21:07.477Z,38.42
2022-11-06T15:23:47.936Z,36.08
2022-11-06T15:26:24.990Z,37.63
2022-11-06T15:29:15.884Z,36.75
2022-11-06T15:31:51.295Z,34.50
2022-11-06T15:34:38.131Z,35.65
2022-11-06T15:37:22.349Z,36.63
2022-11-06T15:40:00.909Z,41.35
2022-11-06T15:42:35.338Z,40.47
2022-11-06T15:45:16.733Z,39.22
2022-11-06T15:48:02.389Z,48.15
2022-11-06T15:50:35.330Z,45.25
2022-11-06T15:53:15.619Z,61.67
2022-11-06T15:55:54.021Z,92.90
2022-11-06T15:58:29.502Z,61.30
2022-11-06T16:01:03.974Z,82.95
2022-11-06T16:03:43.439Z,96.03
2022-11-06T16:06:11.700Z,108.30
2022-11-06T16:08:41.038Z,105.55
2022-11-06T16:11:18.936Z,135.75
2022-11-06T16:13:47.417Z,146.75
2022-11-06T16:16:40.761Z,174.95
2022-11-06T16:19:30.041Z,182.57
2022-11-06T16:22:14.714Z,144.32
2022-11-06T16:24:51.636Z,117.93
2022-11-06T16:27:21.938Z,161.10
2022-11-06T16:29:58.434Z,130.85
2022-11-06T16:32:29.477Z,101.47
2022-11-06T16:34:57.426Z,118.22
2022-11-06T16:37:28.137Z,94.32
2022-11-06T16:39:58.744Z,85.03
2022-11-06T16:42:29.911Z,92.68
2022-11-06T16:45:19.932Z,81.57
2022-11-06T16:48:06.876Z,105.80
2022-11-06T16:50:49.976Z,245.77
2022-11-06T16:53:32.584Z,222.97
2022-11-06T16:56:03.420Z,180.60
2022-11-06T16:58:34.694Z,171.27
2022-11-06T17:01:05.779Z,172.13
2022-11-06T17:03:47.302Z,207.02
2022-11-06T17:06:25.530Z,210.20
2022-11-06T17:09:28.837Z,174.30
2022-11-06T17:12:00.757Z,130.23
2022-11-06T17:14:30.537Z,119.18
2022-11-06T17:17:02.962Z,99.35
2022-11-06T17:19:31.650Z,98.63
2022-11-06T17:21:59.427Z,110.65
2022-11-06T17:24:42.899Z,167.38
2022-11-06T17:27:10.590Z,160.63
2022-11-06T17:29:38.892Z,137.57
2022-11-06T17:32:06.625Z,135.73
2022-11-06T17:34:34.777Z,138.25
2022-11-06T17:37:02.498Z,143.43
2022-11-06T17:39:31.249Z,148.45
2022-11-06T17:41:58.894Z,174.43
2022-11-06T17:44:26.918Z,152.40
2022-11-06T17:46:54.567Z,138.68
2022-11-06T17:49:22.512Z,135.07
2022-11-06T17:51:50.475Z,136.15
2022-11-06T17:54:23.397Z,123.72
2022-11-06T17:56:53.717Z,139.20
2022-11-06T17:59:21.925Z,129.10
2022-11-06T18:01:50.818Z,124.65
2022-11-06T18:04:20.534Z,125.00
2022-11-06T18:06:52.004Z,122.35
2022-11-06T18:09:21.371Z,118.47
2022-11-06T18:11:51.204Z,112.38
2022-11-06T18:14:19.630Z,123.40
2022-11-06T18:16:47.769Z,173.18
2022-11-06T18:19:18.553Z,169.70
2022-11-06T18:21:47.118Z,149.18
2022-11-06T18:24:15.093Z,196.38
2022-11-06T18:26:43.341Z,157.52
2022-11-06T18:29:13.237Z,171.65
2022-11-06T18:31:41.752Z,170.15
2022-11-06T18:34:19.456Z,180.43
2022-11-06T18:36:51.055Z,191.80
2022-11-06T18:39:19.425Z,187.27
2022-11-06T18:41:47.778Z,162.07
2022-11-06T18:44:17.422Z,152.63
2022-11-06T18:46:47.006Z,163.23
2022-11-06T18:49:14.967Z,151.00
2022-11-06T18:51:43.042Z,149.45
2022-11-06T18:54:12.321Z,154.43
2022-11-06T18:56:40.317Z,156.43
2022-11-06T18:59:13.153Z,156.32
2022-11-06T19:01:41.251Z,174.13
2022-11-06T19:04:11.128Z,178.68
2022-11-06T19:06:40.248Z,153.93
2022-11-06T19:09:09.711Z,152.70
2022-11-06T19:11:37.968Z,153.82
2022-11-06T19:14:05.741Z,156.05
2022-11-06T19:16:33.664Z,171.32
2022-11-06T19:19:05.663Z,168.88
2022-11-06T19:21:35.764Z,230.88
2022-11-06T19:24:05.814Z,233.95
2022-11-06T19:26:35.853Z,574.80
2022-11-06T19:29:07.343Z,488.20
2022-11-06T19:31:37.573Z,391.17
2022-11-06T19:34:07.824Z,371.88
2022-11-06T19:36:36.349Z,417.92
2022-11-06T19:39:05.122Z,358.52
2022-11-06T19:41:33.594Z,318.40
2022-11-06T19:44:01.239Z,283.08
2022-11-06T19:46:35.264Z,277.45
2022-11-06T19:49:08.791Z,299.85
2022-11-06T19:51:43.738Z,283.27
2022-11-06T19:54:11.548Z,267.83
2022-11-06T19:57:27.478Z,211.45
2022-11-06T19:59:27.220Z,218.88
2022-11-06T20:01:55.700Z,215.32
2022-11-06T20:04:24.041Z,190.07
2022-11-06T20:06:52.340Z,200.10
2022-11-06T20:09:20.106Z,151.45
2022-11-06T20:11:48.027Z,127.97
2022-11-06T20:14:18.668Z,128.68
2022-11-06T20:16:46.646Z,157.30
2022-11-06T20:19:14.358Z,127.97
2022-11-06T20:21:42.474Z,117.43
2022-11-06T20:24:10.903Z,130.07
2022-11-06T20:26:39.387Z,136.23
2022-11-06T20:29:07.301Z,129.82
2022-11-06T20:31:36.040Z,128.10
2022-11-06T20:34:03.757Z,125.22
2022-11-06T20:36:33.465Z,116.45
2022-11-06T20:39:02.239Z,119.28
2022-11-06T20:41:30.650Z,102.97
2022-11-06T20:43:58.998Z,111.20
2022-11-06T20:46:26.979Z,108.75
2022-11-06T20:48:54.861Z,106.13
2022-11-06T20:51:25.892Z,111.80
2022-11-06T20:53:53.999Z,120.40
2022-11-06T20:56:25.437Z,115.75
2022-11-06T20:58:56.876Z,115.97
2022-11-06T21:01:27.861Z,110.53
2022-11-06T21:03:57.554Z,116.78
2022-11-06T21:06:27.243Z,108.22
2022-11-06T21:08:55.658Z,100.93
2022-11-06T21:11:25.924Z,118.93
2022-11-06T21:13:54.824Z,113.25
2022-11-06T21:16:35.347Z,113.05
2022-11-06T21:19:04.073Z,128.52
2022-11-06T21:21:34.314Z,144.90
2022-11-06T21:24:03.433Z,119.25
2022-11-06T21:26:34.262Z,118.38
2022-11-06T21:29:04.104Z,134.65
2022-11-06T21:31:33.264Z,133.10
2022-11-06T21:34:02.345Z,147.70
2022-11-06T21:36:37.734Z,146.98
2022-11-06T21:39:08.193Z,218.07
2022-11-06T21:41:36.921Z,204.93
2022-11-06T21:44:06.435Z,206.15
2022-11-06T21:46:34.979Z,193.65
2022-11-06T21:49:02.854Z,184.20
2022-11-06T21:51:32.917Z,161.88
2022-11-06T21:54:19.979Z,131.80
2022-11-06T21:56:50.082Z,164.05
2022-11-06T21:59:20.498Z,171.35
2022-11-06T22:01:48.587Z,168.77
2022-11-06T22:04:16.576Z,163.35
2022-11-06T22:06:44.677Z,163.88
2022-11-06T22:09:13.873Z,170.95
2022-11-06T22:11:43.907Z,143.77
2022-11-06T22:14:14.899Z,121.78
2022-11-06T22:16:44.738Z,131.82
2022-11-06T22:19:14.007Z,123.45
2022-11-06T22:21:42.736Z,136.25
2022-11-06T22:24:13.069Z,135.88
2022-11-06T22:26:41.273Z,133.88
2022-11-06T22:29:14.178Z,121.75
2022-11-06T22:31:42.473Z,122.45
2022-11-06T22:34:11.829Z,122.72
2022-11-06T22:36:40.545Z,115.13
2022-11-06T22:39:10.430Z,100.03
2022-11-06T22:41:39.070Z,104.97
2022-11-06T22:44:07.266Z,115.60
2022-11-06T22:46:36.114Z,121.03
2022-11-06T22:49:04.723Z,116.97
2022-11-06T22:51:33.826Z,108.35
2022-11-06T22:54:02.650Z,121.72
2022-11-06T22:56:31.635Z,132.80
2022-11-06T22:59:01.788Z,151.18
2022-11-06T23:01:33.972Z,142.98
2022-11-06T23:04:07.869Z,151.35
2022-11-06T23:06:36.485Z,148.43
2022-11-06T23:09:04.361Z,158.63
2022-11-06T23:11:32.139Z,135.95
2022-11-06T23:14:05.947Z,117.25
2022-11-06T23:16:54.618Z,130.30
2022-11-06T23:19:23.267Z,123.72
2022-11-06T23:21:51.180Z,169.48
2022-11-06T23:24:19.129Z,124.50
2022-11-06T23:26:47.421Z,115.00
2022-11-06T23:29:15.347Z,111.32
2022-11-06T23:31:42.986Z,112.30
2022-11-06T23:34:10.942Z,110.85
2022-11-06T23:36:38.546Z,116.05
2022-11-06T23:39:06.744Z,113.93
2022-11-06T23:41:43.531Z,108.63
2022-11-06T23:44:30.979Z,114.75
2022-11-06T23:46:58.705Z,116.50
2022-11-06T23:49:26.871Z,103.20
2022-11-06T23:51:54.732Z,108.13
2022-11-06T23:54:23.013Z,110.75
2022-11-06T23:56:50.802Z,121.13
2022-11-06T23:59:18.785Z,116.05
